createdAt,value
2023-03-16T00:00:03.699Z,98.63
2023-03-16T00:01:03.701Z,98.44
2023-03-16T00:02:03.809Z,98.25
2023-03-16T00:03:03.696Z,98.44
2023-03-16T00:04:03.597Z,98.72
2023-03-16T00:05:03.578Z,99.01
2023-03-16T00:06:03.538Z,99.10
2023-03-16T00:07:03.519Z,99.10
2023-03-16T00:08:03.491Z,99.67
2023-03-16T00:09:03.459Z,99.58
2023-03-16T00:10:03.430Z,99.77
2023-03-16T00:11:03.438Z,99.58
2023-03-16T00:12:03.383Z,99.77
2023-03-16T00:13:03.355Z,99.67
2023-03-16T00:14:03.322Z,99.48
2023-03-16T00:15:03.297Z,99.39
2023-03-16T00:16:03.320Z,99.96
2023-03-16T00:17:03.242Z,99.48
2023-03-16T00:18:03.211Z,99.77
2023-03-16T00:19:03.197Z,99.77
2023-03-16T00:20:03.165Z,99.58
2023-03-16T00:21:03.135Z,99.77
2023-03-16T00:22:03.096Z,99.77
2023-03-16T00:23:03.080Z,99.48
2023-03-16T00:24:03.045Z,99.48
2023-03-16T00:25:03.022Z,99.96
2023-03-16T00:26:02.987Z,99.99
2023-03-16T00:27:02.991Z,99.99
2023-03-16T00:28:02.930Z,99.96
2023-03-16T00:29:02.902Z,99.67
2023-03-16T00:30:02.874Z,99.99
2023-03-16T00:31:02.853Z,99.99
2023-03-16T00:32:02.851Z,99.99
2023-03-16T00:33:02.824Z,99.99
2023-03-16T00:34:02.806Z,99.99
2023-03-16T00:35:02.741Z,99.99
2023-03-16T00:36:02.898Z,99.99
2023-03-16T00:37:02.682Z,99.99
2023-03-16T00:38:02.646Z,99.99
2023-03-16T00:39:02.629Z,99.99
2023-03-16T00:40:02.593Z,99.99
2023-03-16T00:41:02.572Z,99.99
2023-03-16T00:42:02.532Z,99.99
2023-03-16T00:43:02.531Z,99.99
2023-03-16T00:44:02.480Z,99.99
2023-03-16T00:45:02.457Z,99.99
2023-03-16T00:46:02.457Z,99.99
2023-03-16T00:47:02.399Z,99.99
2023-03-16T00:48:02.366Z,99.99
2023-03-16T00:49:02.341Z,99.99
2023-03-16T00:50:02.309Z,99.99
2023-03-16T00:51:02.287Z,99.99
2023-03-16T00:52:02.261Z,99.99
2023-03-16T00:53:02.235Z,99.99
2023-03-16T00:54:02.221Z,99.99
2023-03-16T00:55:02.172Z,99.99
2023-03-16T00:56:02.139Z,99.99
2023-03-16T00:57:02.116Z,99.99
2023-03-16T00:58:02.083Z,99.99
2023-03-16T00:59:02.083Z,99.99
2023-03-16T01:00:02.028Z,99.99
2023-03-16T01:01:02.061Z,99.99
2023-03-16T01:02:01.976Z,99.99
2023-03-16T01:03:02.003Z,99.99
2023-03-16T01:04:01.921Z,99.99
2023-03-16T01:05:01.908Z,99.99
2023-03-16T01:06:01.875Z,99.99
2023-03-16T01:07:01.840Z,99.99
2023-03-16T01:08:01.829Z,99.99
2023-03-16T01:09:01.787Z,99.99
2023-03-16T01:10:01.749Z,99.99
2023-03-16T01:11:01.728Z,99.99
2023-03-16T01:12:01.695Z,99.99
2023-03-16T01:13:01.677Z,99.99
2023-03-16T01:14:01.643Z,99.99
2023-03-16T01:15:01.634Z,99.99
2023-03-16T01:16:01.593Z,99.99
2023-03-16T01:17:01.622Z,99.99
2023-03-16T01:18:01.534Z,99.99
2023-03-16T01:19:01.524Z,99.99
2023-03-16T01:20:01.473Z,99.99
2023-03-16T01:21:01.443Z,99.99
2023-03-16T01:22:01.428Z,99.99
2023-03-16T01:23:01.386Z,99.99
2023-03-16T01:24:01.373Z,99.99
2023-03-16T01:25:01.343Z,99.99
2023-03-16T01:26:01.312Z,99.99
2023-03-16T01:27:01.282Z,99.99
2023-03-16T01:28:01.254Z,99.99
2023-03-16T01:29:01.222Z,99.99
2023-03-16T01:30:01.198Z,99.99
2023-03-16T01:31:01.244Z,99.99
2023-03-16T01:32:01.146Z,99.99
2023-03-16T01:33:01.207Z,99.99
2023-03-16T01:34:01.097Z,99.99
2023-03-16T01:35:01.058Z,99.99
2023-03-16T01:36:01.101Z,99.99
2023-03-16T01:37:01.002Z,99.99
2023-03-16T01:38:00.975Z,99.99
2023-03-16T01:39:00.953Z,99.99
2023-03-16T01:40:00.943Z,99.99
2023-03-16T01:41:00.897Z,99.99
2023-03-16T01:42:00.862Z,99.99
2023-03-16T01:43:00.830Z,99.99
2023-03-16T01:44:00.812Z,99.99
2023-03-16T01:45:00.773Z,99.99
2023-03-16T01:46:00.776Z,99.99
2023-03-16T01:47:00.739Z,99.99
2023-03-16T01:48:00.694Z,99.99
2023-03-16T01:49:00.664Z,99.99
2023-03-16T01:50:00.644Z,99.99
2023-03-16T01:51:00.608Z,99.99
2023-03-16T01:52:00.579Z,99.99
2023-03-16T01:53:00.552Z,99.99
2023-03-16T01:54:00.526Z,99.99
2023-03-16T01:55:00.493Z,99.99
2023-03-16T01:56:00.468Z,99.99
2023-03-16T01:57:00.450Z,99.99
2023-03-16T01:58:00.414Z,99.99
2023-03-16T01:59:00.382Z,99.99
2023-03-16T02:00:00.359Z,99.99
2023-03-16T02:01:00.368Z,99.99
2023-03-16T02:02:00.301Z,99.99
2023-03-16T02:03:00.293Z,99.99
2023-03-16T02:04:00.311Z,99.99
2023-03-16T02:05:00.216Z,99.99
2023-03-16T02:06:00.194Z,99.99
2023-03-16T02:07:00.163Z,99.99
2023-03-16T02:08:00.137Z,99.99
2023-03-16T02:09:00.106Z,99.99
2023-03-16T02:10:00.117Z,99.99
2023-03-16T02:11:00.060Z,99.99
2023-03-16T02:12:00.026Z,99.99
2023-03-16T02:12:59.994Z,99.99
2023-03-16T02:13:59.977Z,99.99
2023-03-16T02:14:59.948Z,99.99
2023-03-16T02:15:59.964Z,99.99
2023-03-16T02:16:59.883Z,99.99
2023-03-16T02:17:59.856Z,99.99
2023-03-16T02:18:59.847Z,99.99
2023-03-16T02:19:59.801Z,99.99
2023-03-16T02:20:59.769Z,99.99
2023-03-16T02:21:59.760Z,99.99
2023-03-16T02:22:59.717Z,99.99
2023-03-16T02:23:59.686Z,99.99
2023-03-16T02:24:59.661Z,99.99
2023-03-16T02:25:59.642Z,99.99
2023-03-16T02:26:59.601Z,99.99
2023-03-16T02:27:59.577Z,99.99
2023-03-16T02:28:59.558Z,99.99
2023-03-16T02:29:59.524Z,99.99
2023-03-16T02:30:59.519Z,99.99
2023-03-16T02:31:59.463Z,99.99
2023-03-16T02:32:59.538Z,99.99
2023-03-16T02:33:59.410Z,99.99
2023-03-16T02:34:59.414Z,99.99
2023-03-16T02:35:59.393Z,99.99
2023-03-16T02:36:59.326Z,99.99
2023-03-16T02:37:59.319Z,99.99
2023-03-16T02:38:59.268Z,99.99
2023-03-16T02:39:59.238Z,99.99
2023-03-16T02:40:59.209Z,99.99
2023-03-16T02:41:59.200Z,99.99
2023-03-16T02:42:59.159Z,99.99
2023-03-16T02:43:59.131Z,99.99
2023-03-16T02:44:59.123Z,99.99
2023-03-16T02:45:59.101Z,99.99
2023-03-16T02:46:59.043Z,99.99
2023-03-16T02:47:59.019Z,99.99
2023-03-16T02:48:58.989Z,99.99
2023-03-16T02:49:58.958Z,99.99
2023-03-16T02:50:58.951Z,99.99
2023-03-16T02:51:58.902Z,99.99
2023-03-16T02:52:58.871Z,99.99
2023-03-16T02:53:58.844Z,99.99
2023-03-16T02:54:58.816Z,99.99
2023-03-16T02:55:58.787Z,99.99
2023-03-16T02:56:58.760Z,99.99
2023-03-16T02:57:58.732Z,99.99
2023-03-16T02:58:58.713Z,99.99
2023-03-16T02:59:58.676Z,99.99
2023-03-16T03:00:58.650Z,99.99
2023-03-16T03:01:58.622Z,99.99
2023-03-16T03:02:58.635Z,99.99
2023-03-16T03:03:58.565Z,99.99
2023-03-16T03:04:58.535Z,99.99
2023-03-16T03:05:58.520Z,99.99
2023-03-16T03:06:58.509Z,99.99
2023-03-16T03:07:58.455Z,99.99
2023-03-16T03:08:58.428Z,99.99
2023-03-16T03:09:58.403Z,99.99
2023-03-16T03:10:58.372Z,99.99
2023-03-16T03:11:58.339Z,99.99
2023-03-16T03:12:58.316Z,99.99
2023-03-16T03:13:58.284Z,99.99
2023-03-16T03:14:58.254Z,99.99
2023-03-16T03:15:58.274Z,99.99
2023-03-16T03:16:58.201Z,99.99
2023-03-16T03:17:58.177Z,99.99
2023-03-16T03:18:58.152Z,99.99
2023-03-16T03:19:58.120Z,99.99
2023-03-16T03:20:58.087Z,99.99
2023-03-16T03:21:58.071Z,99.99
2023-03-16T03:22:58.050Z,99.99
2023-03-16T03:23:58.002Z,99.99
2023-03-16T03:24:57.981Z,99.99
2023-03-16T03:25:57.951Z,99.99
2023-03-16T03:26:57.919Z,99.99
2023-03-16T03:27:57.985Z,99.99
2023-03-16T03:28:57.863Z,99.99
2023-03-16T03:29:57.835Z,99.99
2023-03-16T03:30:57.807Z,99.99
2023-03-16T03:31:57.836Z,99.99
2023-03-16T03:32:57.777Z,99.99
2023-03-16T03:33:57.736Z,99.99
2023-03-16T03:34:57.702Z,99.99
2023-03-16T03:35:57.750Z,99.99
2023-03-16T03:36:57.638Z,99.99
2023-03-16T03:37:57.616Z,99.99
2023-03-16T03:38:57.612Z,99.99
2023-03-16T03:39:57.561Z,99.99
2023-03-16T03:40:57.525Z,99.99
2023-03-16T03:41:57.505Z,99.99
2023-03-16T03:42:57.470Z,99.99
2023-03-16T03:43:57.443Z,99.99
2023-03-16T03:44:57.418Z,99.99
2023-03-16T03:45:57.540Z,99.99
2023-03-16T03:46:57.522Z,99.99
2023-03-16T03:47:57.334Z,99.99
2023-03-16T03:48:57.316Z,99.99
2023-03-16T03:49:57.279Z,99.99
2023-03-16T03:50:57.253Z,99.99
2023-03-16T03:51:57.221Z,99.99
2023-03-16T03:52:57.189Z,99.99
2023-03-16T03:53:57.171Z,99.99
2023-03-16T03:54:57.158Z,99.99
2023-03-16T03:55:57.106Z,99.99
2023-03-16T03:56:57.075Z,99.96
2023-03-16T03:57:57.058Z,99.99
2023-03-16T03:58:57.020Z,99.99
2023-03-16T03:59:57.011Z,99.99
2023-03-16T04:00:56.968Z,99.99
2023-03-16T04:01:56.961Z,99.99
2023-03-16T04:02:57.099Z,99.99
2023-03-16T04:03:56.889Z,99.99
2023-03-16T04:04:56.855Z,99.96
2023-03-16T04:05:56.830Z,99.67
2023-03-16T04:06:56.797Z,99.99
2023-03-16T04:07:56.771Z,99.99
2023-03-16T04:08:56.745Z,99.99
2023-03-16T04:09:56.718Z,99.77
2023-03-16T04:10:56.709Z,99.48
2023-03-16T04:11:56.662Z,99.67
2023-03-16T04:12:56.625Z,99.90
2023-03-16T04:13:56.603Z,99.96
2023-03-16T04:14:56.579Z,99.99
2023-03-16T04:15:56.548Z,99.99
2023-03-16T04:16:56.588Z,99.77
2023-03-16T04:17:56.494Z,99.99
2023-03-16T04:18:56.460Z,99.20
2023-03-16T04:19:56.437Z,98.91
2023-03-16T04:20:56.404Z,98.63
2023-03-16T04:21:56.380Z,98.54
2023-03-16T04:22:56.347Z,99.01
2023-03-16T04:23:56.321Z,99.01
2023-03-16T04:24:56.307Z,99.01
2023-03-16T04:25:56.267Z,99.10
2023-03-16T04:26:56.265Z,99.01
2023-03-16T04:27:56.210Z,98.54
2023-03-16T04:28:56.180Z,98.25
2023-03-16T04:29:56.162Z,98.72
2023-03-16T04:30:56.187Z,98.54
2023-03-16T04:31:56.102Z,99.01
2023-03-16T04:32:56.165Z,99.29
2023-03-16T04:33:56.043Z,98.82
2023-03-16T04:34:56.011Z,98.82
2023-03-16T04:35:56.052Z,97.78
2023-03-16T04:36:55.956Z,97.97
2023-03-16T04:37:55.934Z,97.87
2023-03-16T04:38:55.903Z,97.97
2023-03-16T04:39:55.875Z,98.72
2023-03-16T04:40:55.845Z,98.63
2023-03-16T04:41:55.822Z,97.97
2023-03-16T04:42:55.821Z,97.97
2023-03-16T04:43:55.765Z,98.06
2023-03-16T04:44:55.733Z,97.78
2023-03-16T04:45:55.723Z,98.06
2023-03-16T04:46:55.676Z,98.06
2023-03-16T04:47:55.658Z,97.59
2023-03-16T04:48:55.620Z,97.87
2023-03-16T04:49:55.594Z,98.06
2023-03-16T04:50:55.569Z,98.25
2023-03-16T04:51:55.540Z,97.40
2023-03-16T04:52:55.522Z,97.49
2023-03-16T04:53:55.485Z,97.30
2023-03-16T04:54:55.456Z,97.78
2023-03-16T04:55:55.432Z,97.78
2023-03-16T04:56:55.398Z,97.78
2023-03-16T04:57:55.379Z,97.59
2023-03-16T04:58:55.364Z,96.92
2023-03-16T04:59:55.320Z,97.21
2023-03-16T05:00:55.285Z,97.02
2023-03-16T05:01:55.323Z,97.87
2023-03-16T05:02:55.231Z,97.49
2023-03-16T05:03:55.211Z,97.78
2023-03-16T05:04:55.176Z,97.68
2023-03-16T05:05:55.252Z,98.06
2023-03-16T05:06:55.117Z,98.06
2023-03-16T05:07:55.111Z,97.78
2023-03-16T05:08:55.068Z,97.78
2023-03-16T05:09:55.032Z,97.49
2023-03-16T05:10:55.001Z,97.78
2023-03-16T05:11:54.989Z,97.97
2023-03-16T05:12:54.947Z,97.30
2023-03-16T05:13:54.927Z,97.87
2023-03-16T05:14:54.924Z,97.40
2023-03-16T05:15:54.921Z,97.68
2023-03-16T05:16:54.840Z,97.30
2023-03-16T05:17:54.812Z,97.40
2023-03-16T05:18:54.780Z,97.30
2023-03-16T05:19:54.759Z,97.78
2023-03-16T05:20:54.724Z,97.49
2023-03-16T05:21:54.699Z,97.49
2023-03-16T05:22:54.672Z,97.68
2023-03-16T05:23:54.663Z,98.06
2023-03-16T05:24:54.612Z,98.06
2023-03-16T05:25:54.588Z,98.54
2023-03-16T05:26:54.557Z,98.82
2023-03-16T05:27:54.538Z,98.44
2023-03-16T05:28:54.498Z,98.82
2023-03-16T05:29:54.473Z,98.35
2023-03-16T05:30:54.517Z,97.97
2023-03-16T05:31:54.419Z,97.87
2023-03-16T05:32:54.459Z,98.06
2023-03-16T05:33:54.363Z,98.16
2023-03-16T05:34:54.335Z,98.63
2023-03-16T05:35:54.384Z,97.87
2023-03-16T05:36:54.279Z,97.78
2023-03-16T05:37:54.248Z,98.44
2023-03-16T05:38:54.225Z,98.63
2023-03-16T05:39:54.204Z,97.97
2023-03-16T05:40:54.172Z,97.87
2023-03-16T05:41:54.135Z,97.49
2023-03-16T05:42:54.119Z,97.59
2023-03-16T05:43:54.095Z,98.16
2023-03-16T05:44:54.074Z,97.97
2023-03-16T05:45:54.031Z,98.25
2023-03-16T05:46:54.126Z,98.06
2023-03-16T05:47:53.972Z,97.97
2023-03-16T05:48:53.946Z,97.78
2023-03-16T05:49:53.920Z,98.25
2023-03-16T05:50:53.901Z,97.59
2023-03-16T05:51:53.861Z,97.87
2023-03-16T05:52:53.836Z,97.49
2023-03-16T05:53:53.805Z,97.64
2023-03-16T05:54:53.781Z,98.02
2023-03-16T05:55:53.757Z,98.02
2023-03-16T05:56:53.728Z,98.21
2023-03-16T05:57:53.700Z,98.11
2023-03-16T05:58:53.693Z,97.54
2023-03-16T05:59:53.634Z,97.45
2023-03-16T06:00:53.617Z,97.68
2023-03-16T06:01:53.588Z,97.49
2023-03-16T06:02:53.624Z,97.59
2023-03-16T06:03:53.670Z,97.68
2023-03-16T06:04:53.496Z,97.64
2023-03-16T06:05:53.473Z,98.11
2023-03-16T06:06:53.452Z,97.54
2023-03-16T06:07:53.433Z,97.16
2023-03-16T06:08:53.388Z,97.16
2023-03-16T06:09:53.356Z,97.54
2023-03-16T06:10:53.332Z,97.83
2023-03-16T06:11:53.311Z,97.54
2023-03-16T06:12:53.278Z,97.16
2023-03-16T06:13:53.246Z,97.35
2023-03-16T06:14:53.221Z,96.97
2023-03-16T06:15:53.347Z,97.64
2023-03-16T06:16:53.171Z,97.07
2023-03-16T06:17:53.133Z,96.78
2023-03-16T06:18:53.138Z,96.97
2023-03-16T06:19:53.082Z,97.92
2023-03-16T06:20:53.052Z,97.92
2023-03-16T06:21:53.059Z,97.16
2023-03-16T06:22:52.997Z,97.26
2023-03-16T06:23:52.967Z,96.88
2023-03-16T06:24:52.948Z,96.78
2023-03-16T06:25:52.916Z,96.97
2023-03-16T06:26:52.886Z,96.88
2023-03-16T06:27:52.860Z,96.97
2023-03-16T06:28:52.832Z,96.50
2023-03-16T06:29:52.816Z,96.59
2023-03-16T06:30:52.779Z,96.97
2023-03-16T06:31:52.867Z,96.88
2023-03-16T06:32:52.728Z,96.78
2023-03-16T06:33:52.691Z,96.97
2023-03-16T06:34:52.686Z,97.26
2023-03-16T06:35:52.694Z,97.64
2023-03-16T06:36:52.612Z,97.64
2023-03-16T06:37:52.577Z,97.07
2023-03-16T06:38:52.553Z,97.64
2023-03-16T06:39:52.521Z,97.73
2023-03-16T06:40:52.498Z,97.35
2023-03-16T06:41:52.467Z,97.07
2023-03-16T06:42:52.440Z,96.88
2023-03-16T06:43:52.412Z,96.78
2023-03-16T06:44:52.386Z,97.54
2023-03-16T06:45:52.404Z,97.45
2023-03-16T06:46:52.327Z,96.97
2023-03-16T06:47:52.295Z,97.16
2023-03-16T06:48:52.275Z,97.16
2023-03-16T06:49:52.248Z,97.54
2023-03-16T06:50:52.243Z,97.73
2023-03-16T06:51:52.190Z,98.02
2023-03-16T06:52:52.163Z,97.83
2023-03-16T06:53:52.134Z,97.64
2023-03-16T06:54:52.104Z,97.64
2023-03-16T06:55:52.074Z,97.16
2023-03-16T06:56:52.048Z,97.64
2023-03-16T06:57:52.026Z,97.35
2023-03-16T06:58:51.993Z,97.83
2023-03-16T06:59:51.965Z,97.54
2023-03-16T07:00:51.975Z,97.45
2023-03-16T07:01:51.913Z,97.73
2023-03-16T07:02:51.885Z,97.64
2023-03-16T07:03:51.910Z,97.45
2023-03-16T07:04:51.828Z,98.11
2023-03-16T07:05:51.794Z,97.83
2023-03-16T07:06:51.793Z,98.39
2023-03-16T07:07:51.736Z,97.35
2023-03-16T07:08:51.712Z,98.02
2023-03-16T07:09:51.680Z,97.54
2023-03-16T07:10:51.671Z,97.64
2023-03-16T07:11:51.625Z,97.73
2023-03-16T07:12:51.601Z,97.92
2023-03-16T07:13:51.571Z,97.59
2023-03-16T07:14:54.075Z,97.12
2023-03-16T07:15:51.511Z,96.92
2023-03-16T07:16:51.536Z,96.83
2023-03-16T07:17:51.460Z,96.92
2023-03-16T07:18:51.432Z,96.83
2023-03-16T07:19:51.411Z,96.73
2023-03-16T07:20:51.382Z,96.92
2023-03-16T07:21:51.350Z,96.92
2023-03-16T07:22:51.348Z,97.02
2023-03-16T07:23:51.292Z,96.83
2023-03-16T07:24:51.268Z,96.73
2023-03-16T07:25:51.236Z,96.73
2023-03-16T07:26:51.219Z,96.55
2023-03-16T07:27:51.181Z,96.17
2023-03-16T07:28:51.159Z,95.69
2023-03-16T07:29:51.125Z,95.69
2023-03-16T07:31:03.073Z,96.45
2023-03-16T07:31:51.120Z,96.55
2023-03-16T07:32:51.118Z,96.73
2023-03-16T07:33:51.025Z,96.73
2023-03-16T07:34:50.990Z,97.02
2023-03-16T07:35:51.008Z,96.92
2023-03-16T07:36:50.938Z,96.92
2023-03-16T07:37:50.945Z,96.08
2023-03-16T07:38:50.906Z,96.17
2023-03-16T07:39:50.854Z,96.26
2023-03-16T07:40:50.829Z,95.79
2023-03-16T07:41:50.798Z,96.36
2023-03-16T07:42:50.779Z,95.69
2023-03-16T07:43:50.743Z,96.08
2023-03-16T07:44:51.953Z,95.22
2023-03-16T07:45:50.717Z,95.22
2023-03-16T07:46:50.661Z,95.98
2023-03-16T07:47:50.635Z,95.79
2023-03-16T07:48:50.607Z,95.93
2023-03-16T07:49:50.574Z,95.74
2023-03-16T07:50:50.559Z,95.65
2023-03-16T07:51:50.520Z,95.74
2023-03-16T07:52:50.491Z,95.84
2023-03-16T07:53:50.460Z,95.17
2023-03-16T07:54:50.464Z,95.17
2023-03-16T07:55:50.415Z,95.17
2023-03-16T07:56:50.385Z,95.17
2023-03-16T07:57:50.360Z,95.07
2023-03-16T07:58:50.348Z,95.36
2023-03-16T07:59:50.296Z,95.84
2023-03-16T08:00:50.273Z,95.27
2023-03-16T08:01:50.244Z,94.89
2023-03-16T08:02:50.262Z,95.55
2023-03-16T08:03:50.243Z,95.46
2023-03-16T08:04:50.166Z,95.74
2023-03-16T08:05:50.132Z,95.27
2023-03-16T08:06:50.111Z,94.32
2023-03-16T08:07:50.098Z,94.51
2023-03-16T08:08:50.050Z,94.89
2023-03-16T08:09:50.023Z,95.17
2023-03-16T08:10:50.019Z,95.46
2023-03-16T08:11:49.969Z,95.17
2023-03-16T08:12:49.994Z,95.27
2023-03-16T08:13:49.913Z,94.89
2023-03-16T08:14:49.887Z,94.42
2023-03-16T08:15:49.906Z,94.60
2023-03-16T08:16:49.841Z,93.65
2023-03-16T08:17:49.806Z,93.94
2023-03-16T08:18:49.785Z,93.56
2023-03-16T08:19:49.749Z,94.03
2023-03-16T08:20:49.732Z,94.13
2023-03-16T08:22:01.160Z,93.75
2023-03-16T08:22:49.671Z,93.46
2023-03-16T08:23:49.653Z,93.27
2023-03-16T08:24:49.617Z,93.37
2023-03-16T08:25:49.589Z,93.56
2023-03-16T08:26:49.593Z,93.08
2023-03-16T08:27:49.533Z,93.37
2023-03-16T08:28:49.554Z,93.27
2023-03-16T08:29:49.477Z,93.18
2023-03-16T08:30:49.541Z,93.18
2023-03-16T08:31:49.440Z,93.56
2023-03-16T08:32:49.606Z,93.56
2023-03-16T08:33:49.365Z,93.27
2023-03-16T08:34:49.349Z,93.56
2023-03-16T08:35:49.319Z,93.75
2023-03-16T08:36:49.294Z,93.37
2023-03-16T08:37:49.263Z,93.99
2023-03-16T08:39:05.613Z,94.46
2023-03-16T08:39:49.207Z,93.70
2023-03-16T08:40:49.184Z,93.80
2023-03-16T08:41:49.154Z,93.80
2023-03-16T08:42:49.145Z,93.41
2023-03-16T08:43:49.095Z,92.85
2023-03-16T08:44:49.069Z,92.28
2023-03-16T08:45:49.045Z,92.09
2023-03-16T08:46:49.136Z,92.18
2023-03-16T08:47:49.038Z,92.18
2023-03-16T08:48:48.959Z,92.28
2023-03-16T08:49:48.933Z,93.23
2023-03-16T08:50:48.916Z,93.04
2023-03-16T08:51:48.876Z,92.47
2023-03-16T08:52:48.855Z,92.28
2023-03-16T08:53:48.847Z,92.47
2023-03-16T08:55:01.956Z,92.18
2023-03-16T08:55:48.772Z,92.09
2023-03-16T08:56:48.737Z,91.89
2023-03-16T08:57:48.711Z,91.71
2023-03-16T08:58:50.530Z,92.09
2023-03-16T08:59:48.655Z,92.56
2023-03-16T09:00:50.523Z,92.28
2023-03-16T09:01:48.629Z,92.90
2023-03-16T09:02:48.577Z,92.37
2023-03-16T09:03:48.584Z,91.66
2023-03-16T09:04:48.521Z,91.71
2023-03-16T09:05:48.499Z,91.24
2023-03-16T09:06:55.827Z,91.80
2023-03-16T09:07:49.041Z,91.61
2023-03-16T09:08:48.414Z,92.61
2023-03-16T09:09:48.382Z,91.94
2023-03-16T09:10:48.374Z,90.95
2023-03-16T09:11:48.330Z,90.99
2023-03-16T09:12:48.301Z,90.90
2023-03-16T09:13:48.273Z,90.99
2023-03-16T09:14:48.271Z,91.09
2023-03-16T09:15:48.283Z,90.52
2023-03-16T09:16:48.203Z,90.33
2023-03-16T09:17:48.186Z,91.19
2023-03-16T09:18:48.140Z,91.47
2023-03-16T09:19:51.514Z,91.28
2023-03-16T09:20:48.094Z,91.28
2023-03-16T09:21:48.057Z,90.42
2023-03-16T09:22:48.049Z,90.52
2023-03-16T09:23:48.002Z,90.52
2023-03-16T09:24:48.019Z,90.23
2023-03-16T09:25:47.953Z,90.90
2023-03-16T09:26:47.968Z,90.42
2023-03-16T09:27:47.896Z,90.80
2023-03-16T09:28:47.872Z,90.14
2023-03-16T09:29:47.842Z,91.38
2023-03-16T09:30:47.865Z,91.19
2023-03-16T09:31:47.855Z,90.80
2023-03-16T09:32:47.806Z,90.52
2023-03-16T09:33:47.733Z,91.19
2023-03-16T09:34:47.711Z,90.71
2023-03-16T09:35:47.697Z,90.33
2023-03-16T09:36:47.661Z,89.57
2023-03-16T09:38:04.647Z,89.04
2023-03-16T09:38:47.604Z,88.34
2023-03-16T09:39:47.569Z,88.62
2023-03-16T09:40:47.606Z,89.19
2023-03-16T09:41:47.535Z,89.38
2023-03-16T09:42:47.495Z,89.23
2023-03-16T09:43:47.468Z,89.33
2023-03-16T09:44:47.440Z,89.42
2023-03-16T09:45:47.453Z,89.52
2023-03-16T09:46:47.411Z,91.04
2023-03-16T09:47:47.360Z,90.75
2023-03-16T09:48:47.336Z,89.80
2023-03-16T09:49:47.309Z,88.76
2023-03-16T09:50:49.124Z,88.76
2023-03-16T09:51:47.257Z,89.52
2023-03-16T09:52:47.225Z,90.00
2023-03-16T09:53:47.202Z,89.33
2023-03-16T09:54:47.176Z,89.71
2023-03-16T09:55:47.149Z,88.38
2023-03-16T09:56:47.118Z,88.00
2023-03-16T09:57:47.103Z,88.76
2023-03-16T09:58:47.071Z,89.23
2023-03-16T09:59:47.043Z,89.04
2023-03-16T10:00:47.019Z,88.47
2023-03-16T10:01:46.991Z,88.28
2023-03-16T10:02:46.983Z,88.76
2023-03-16T10:03:47.004Z,88.19
2023-03-16T10:04:46.906Z,87.24
2023-03-16T10:05:46.881Z,87.71
2023-03-16T10:06:46.853Z,87.24
2023-03-16T10:07:46.830Z,87.43
2023-03-16T10:08:46.811Z,86.38
2023-03-16T10:09:46.776Z,85.62
2023-03-16T10:10:46.746Z,85.91
2023-03-16T10:11:46.727Z,85.24
2023-03-16T10:12:46.690Z,85.62
2023-03-16T10:13:46.669Z,85.15
2023-03-16T10:14:46.653Z,84.58
2023-03-16T10:15:46.619Z,84.29
2023-03-16T10:16:46.662Z,85.05
2023-03-16T10:17:46.563Z,84.86
2023-03-16T10:18:46.552Z,84.20
2023-03-16T10:19:46.519Z,84.20
2023-03-16T10:20:46.480Z,84.77
2023-03-16T10:21:46.455Z,85.53
2023-03-16T10:22:46.423Z,86.76
2023-03-16T10:23:46.405Z,86.86
2023-03-16T10:24:46.373Z,87.05
2023-03-16T10:25:46.366Z,87.43
2023-03-16T10:26:46.321Z,87.24
2023-03-16T10:27:46.310Z,87.52
2023-03-16T10:28:46.268Z,88.09
2023-03-16T10:29:46.247Z,88.95
2023-03-16T10:30:46.216Z,88.67
2023-03-16T10:31:46.270Z,88.28
2023-03-16T10:32:46.188Z,87.62
2023-03-16T10:33:46.134Z,87.24
2023-03-16T10:34:46.140Z,87.62
2023-03-16T10:35:46.088Z,87.62
2023-03-16T10:36:46.087Z,88.09
2023-03-16T10:37:46.027Z,88.00
2023-03-16T10:38:45.996Z,88.38
2023-03-16T10:39:45.985Z,89.23
2023-03-16T10:40:45.946Z,89.04
2023-03-16T10:41:45.983Z,89.52
2023-03-16T10:42:45.888Z,90.19
2023-03-16T10:43:45.873Z,90.09
2023-03-16T10:44:45.838Z,90.28
2023-03-16T10:45:45.849Z,90.04
2023-03-16T10:46:45.987Z,90.56
2023-03-16T10:47:45.765Z,90.09
2023-03-16T10:48:45.741Z,89.66
2023-03-16T10:49:45.710Z,88.85
2023-03-16T10:50:45.704Z,89.18
2023-03-16T10:51:45.661Z,89.75
2023-03-16T10:52:45.634Z,90.42
2023-03-16T10:53:45.608Z,89.00
2023-03-16T10:54:45.576Z,87.66
2023-03-16T10:55:45.554Z,87.85
2023-03-16T10:56:45.526Z,88.90
2023-03-16T10:57:45.511Z,89.00
2023-03-16T10:58:45.477Z,88.52
2023-03-16T10:59:45.449Z,88.23
2023-03-16T11:00:45.428Z,87.76
2023-03-16T11:01:45.398Z,87.66
2023-03-16T11:02:45.366Z,87.47
2023-03-16T11:03:45.346Z,86.99
2023-03-16T11:04:45.344Z,86.80
2023-03-16T11:05:45.291Z,86.14
2023-03-16T11:06:45.285Z,85.66
2023-03-16T11:07:45.238Z,86.43
2023-03-16T11:08:45.208Z,87.28
2023-03-16T11:09:45.216Z,87.76
2023-03-16T11:10:55.055Z,88.42
2023-03-16T11:11:45.128Z,89.00
2023-03-16T11:12:45.104Z,87.47
2023-03-16T11:13:45.112Z,85.76
2023-03-16T11:14:45.079Z,85.57
2023-03-16T11:15:45.032Z,85.38
2023-03-16T11:16:45.101Z,85.47
2023-03-16T11:17:44.985Z,85.10
2023-03-16T11:18:44.947Z,85.00
2023-03-16T11:19:44.928Z,85.57
2023-03-16T11:20:44.900Z,85.95
2023-03-16T11:21:44.879Z,86.33
2023-03-16T11:22:44.881Z,84.14
2023-03-16T11:23:44.821Z,83.19
2023-03-16T11:24:44.793Z,82.53
2023-03-16T11:25:44.766Z,82.05
2023-03-16T11:26:44.741Z,80.72
2023-03-16T11:27:44.711Z,81.38
2023-03-16T11:28:44.695Z,81.58
2023-03-16T11:29:44.658Z,81.14
2023-03-16T11:30:44.707Z,81.81
2023-03-16T11:31:44.603Z,82.05
2023-03-16T11:32:44.679Z,82.28
2023-03-16T11:33:44.562Z,82.95
2023-03-16T11:34:44.532Z,81.77
2023-03-16T11:35:58.075Z,81.38
2023-03-16T11:36:44.480Z,81.67
2023-03-16T11:37:44.463Z,82.81
2023-03-16T11:38:44.448Z,83.23
2023-03-16T11:39:44.416Z,83.19
2023-03-16T11:40:44.374Z,81.38
2023-03-16T11:41:44.344Z,80.82
2023-03-16T11:42:44.313Z,81.05
2023-03-16T11:43:44.297Z,81.29
2023-03-16T11:44:44.262Z,81.58
2023-03-16T11:45:44.265Z,82.09
2023-03-16T11:46:44.210Z,81.33
2023-03-16T11:47:44.191Z,81.71
2023-03-16T11:48:44.164Z,81.86
2023-03-16T11:49:44.137Z,81.96
2023-03-16T11:50:44.108Z,81.33
2023-03-16T11:51:44.084Z,81.24
2023-03-16T11:52:44.051Z,81.24
2023-03-16T11:53:44.042Z,80.44
2023-03-16T11:54:44.024Z,81.29
2023-03-16T11:55:43.978Z,81.20
2023-03-16T11:56:43.941Z,81.58
2023-03-16T11:57:43.917Z,82.09
2023-03-16T11:58:43.894Z,82.43
2023-03-16T11:59:49.005Z,82.43
2023-03-16T12:00:43.837Z,83.42
2023-03-16T12:01:57.934Z,83.14
2023-03-16T12:02:44.020Z,82.95
2023-03-16T12:03:43.808Z,82.57
2023-03-16T12:04:43.732Z,82.67
2023-03-16T12:05:45.015Z,83.14
2023-03-16T12:06:43.686Z,83.04
2023-03-16T12:07:43.655Z,82.76
2023-03-16T12:08:43.624Z,83.52
2023-03-16T12:09:43.605Z,83.33
2023-03-16T12:10:43.596Z,82.38
2023-03-16T12:11:43.551Z,81.71
2023-03-16T12:12:43.523Z,81.71
2023-03-16T12:13:43.498Z,82.09
2023-03-16T12:14:43.477Z,81.71
2023-03-16T12:15:43.458Z,82.19
2023-03-16T12:16:49.586Z,82.09
2023-03-16T12:17:43.390Z,81.62
2023-03-16T12:18:43.359Z,81.81
2023-03-16T12:19:43.334Z,81.71
2023-03-16T12:20:43.305Z,81.71
2023-03-16T12:21:43.285Z,81.62
2023-03-16T12:22:43.255Z,82.09
2023-03-16T12:23:43.232Z,81.62
2023-03-16T12:24:43.208Z,81.43
2023-03-16T12:25:43.178Z,82.00
2023-03-16T12:26:43.167Z,82.38
2023-03-16T12:27:43.135Z,81.90
2023-03-16T12:28:43.097Z,81.71
2023-03-16T12:29:43.077Z,81.81
2023-03-16T12:30:43.052Z,81.33
2023-03-16T12:31:43.185Z,80.86
2023-03-16T12:32:43.037Z,80.76
2023-03-16T12:33:42.967Z,81.62
2023-03-16T12:34:42.935Z,82.38
2023-03-16T12:35:43.020Z,82.38
2023-03-16T12:36:42.907Z,81.24
2023-03-16T12:37:42.858Z,81.33
2023-03-16T12:38:42.832Z,81.81
2023-03-16T12:39:42.810Z,81.62
2023-03-16T12:40:42.782Z,81.52
2023-03-16T12:41:42.761Z,81.90
2023-03-16T12:42:42.761Z,81.81
2023-03-16T12:43:42.796Z,81.24
2023-03-16T12:44:42.679Z,80.29
2023-03-16T12:45:42.707Z,80.66
2023-03-16T12:46:42.637Z,80.86
2023-03-16T12:47:42.602Z,80.19
2023-03-16T12:48:42.575Z,80.29
2023-03-16T12:49:42.559Z,80.29
2023-03-16T12:50:42.529Z,79.81
2023-03-16T12:51:42.506Z,80.57